Klawock Airport Klawock US
ICAO: PAKW
IATA:
Category: Medium
Scheduled Services:

Elevation: 80 ft
TransAlt. 18000 ft.

Airport Communications:
ASOS:135.45
ANCHORAGE CNTR:118.5
CTAF:120.9
KETCHIKAN RDO:122.25

PAKW Zoom In..

If you have problems with the map follow the link
https://www.worldairports.se/pages/airport.php?
ICAO=PAKW

Runways:

(A) RW 02 length 5000 ft width 100 ft
---- / hdg 19

(B) RW 20 length 5000 ft width 100 ft
---- / hdg 199

Location; PAKW
Day. 16 / Time. 02.53 Zulu
* Altimeter: 30.22
* Temperature: 03° c. 37.4°f.
* Wind from: 000° Speed 00 kn.
Dewpoint: 03° c.
Visibility: 1/4 Statute Miles.
Conditions: Fog.

PAKW 160253Z AUTO 00000KT 1/4SM FG VV001 03/03 A3022 RMK SLP233 T00330033 51021 TSNO VIA AUTODIAL


Wind - Calm.

 
 
jpsmedia.com for Web Design worldairports.se 2018   terms of use